createdAt,value
2023-02-15T00:02:07.452Z,36.67
2023-02-15T00:04:53.684Z,34.63
2023-02-15T00:07:21.674Z,37.08
2023-02-15T00:09:49.756Z,34.40
2023-02-15T00:12:18.169Z,34.90
2023-02-15T00:14:46.178Z,35.40
2023-02-15T00:17:14.145Z,34.60
2023-02-15T00:19:43.482Z,36.92
2023-02-15T00:22:11.666Z,36.40
2023-02-15T00:24:39.608Z,37.00
2023-02-15T00:27:07.611Z,34.97
2023-02-15T00:29:35.536Z,35.95
2023-02-15T00:32:03.523Z,37.33
2023-02-15T00:34:31.479Z,35.88
2023-02-15T00:37:00.921Z,34.70
2023-02-15T00:39:30.035Z,36.03
2023-02-15T00:41:58.075Z,34.77
2023-02-15T00:44:26.030Z,32.63
2023-02-15T00:46:53.994Z,32.00
2023-02-15T00:49:22.122Z,30.90
2023-02-15T00:51:50.110Z,30.80
2023-02-15T00:54:19.596Z,29.85
2023-02-15T00:56:47.566Z,30.35
2023-02-15T00:59:15.645Z,28.33
2023-02-15T01:01:43.558Z,27.53
2023-02-15T01:04:11.558Z,26.73
2023-02-15T01:06:39.586Z,27.00
2023-02-15T01:09:07.695Z,24.98
2023-02-15T01:11:37.049Z,24.10
2023-02-15T01:14:06.422Z,22.40
2023-02-15T01:16:34.431Z,23.52
2023-02-15T01:19:03.647Z,22.42
2023-02-15T01:21:31.871Z,21.52
2023-02-15T01:24:00.146Z,21.38
2023-02-15T01:26:28.385Z,21.87
2023-02-15T01:28:58.514Z,20.88
2023-02-15T01:31:26.791Z,20.83
2023-02-15T01:33:54.806Z,20.33
2023-02-15T01:36:22.912Z,20.83
2023-02-15T01:38:50.957Z,19.70
2023-02-15T01:41:23.816Z,21.23
2023-02-15T01:43:54.153Z,20.77
2023-02-15T01:46:28.284Z,21.77
2023-02-15T01:49:04.107Z,20.23
2023-02-15T01:51:35.202Z,18.98
2023-02-15T01:54:08.092Z,20.77
2023-02-15T01:56:39.958Z,21.15
2023-02-15T01:59:11.236Z,22.00
2023-02-15T02:01:41.063Z,22.47
2023-02-15T02:04:17.143Z,21.57
2023-02-15T02:06:48.610Z,23.23
2023-02-15T02:09:16.658Z,22.63
2023-02-15T02:11:48.327Z,23.50
2023-02-15T02:14:16.714Z,23.80
2023-02-15T02:16:55.039Z,25.08
2023-02-15T02:20:05.717Z,23.17
2023-02-15T02:23:05.087Z,23.40
2023-02-15T02:26:00.363Z,24.20
2023-02-15T02:28:50.229Z,23.60
2023-02-15T02:31:40.344Z,24.35
2023-02-15T02:34:15.862Z,24.85
2023-02-15T02:36:51.530Z,23.55
2023-02-15T02:39:30.280Z,23.58
2023-02-15T02:42:04.181Z,24.13
2023-02-15T02:44:43.921Z,23.15
2023-02-15T02:47:18.138Z,25.07
2023-02-15T02:49:47.439Z,24.13
2023-02-15T02:52:38.912Z,22.90
2023-02-15T02:55:12.136Z,24.00
2023-02-15T02:57:49.726Z,23.48
2023-02-15T03:00:19.558Z,24.95
2023-02-15T03:02:49.945Z,25.10
2023-02-15T03:05:26.190Z,25.40
2023-02-15T03:07:55.832Z,25.50
2023-02-15T03:10:25.133Z,23.83
2023-02-15T03:12:54.860Z,24.83
2023-02-15T03:15:26.373Z,24.08
2023-02-15T03:17:58.687Z,25.67
2023-02-15T03:20:32.600Z,24.15
2023-02-15T03:23:04.583Z,25.05
2023-02-15T03:25:35.496Z,23.40
2023-02-15T03:28:08.724Z,25.20
2023-02-15T03:30:38.648Z,24.95
2023-02-15T03:33:08.203Z,24.80
2023-02-15T03:35:46.001Z,26.20
2023-02-15T03:38:17.985Z,24.30
2023-02-15T03:41:06.644Z,23.50
2023-02-15T03:43:42.245Z,23.98
2023-02-15T03:46:14.385Z,24.30
2023-02-15T03:48:46.892Z,23.13
2023-02-15T03:51:34.704Z,24.63
2023-02-15T03:54:06.018Z,23.73
2023-02-15T03:56:36.598Z,25.27
2023-02-15T03:59:22.492Z,24.85
2023-02-15T04:02:07.241Z,24.45
2023-02-15T04:04:37.526Z,25.70
2023-02-15T04:07:09.157Z,23.63
2023-02-15T04:09:54.835Z,24.83
2023-02-15T04:12:23.356Z,25.40
2023-02-15T04:15:08.814Z,23.92
2023-02-15T04:17:38.170Z,24.70
2023-02-15T04:20:25.313Z,25.95
2023-02-15T04:23:12.481Z,24.88
2023-02-15T04:25:40.837Z,26.48
2023-02-15T04:28:09.141Z,25.67
2023-02-15T04:30:37.160Z,25.63
2023-02-15T04:33:05.207Z,25.42
2023-02-15T04:35:34.502Z,25.88
2023-02-15T04:38:03.970Z,26.52
2023-02-15T04:40:32.138Z,27.67
2023-02-15T04:43:00.058Z,25.98
2023-02-15T04:45:28.296Z,24.83
2023-02-15T04:47:56.421Z,26.48
2023-02-15T04:50:24.491Z,26.95
2023-02-15T04:52:52.472Z,27.70
2023-02-15T04:55:22.020Z,27.20
2023-02-15T04:57:50.027Z,27.02
2023-02-15T05:00:18.723Z,27.48
2023-02-15T05:02:46.699Z,26.50
2023-02-15T05:05:16.122Z,26.50
2023-02-15T05:07:44.117Z,28.33
2023-02-15T05:10:12.303Z,27.27
2023-02-15T05:12:41.573Z,26.83
2023-02-15T05:15:10.510Z,26.95
2023-02-15T05:17:38.773Z,25.63
2023-02-15T05:20:08.230Z,27.20
2023-02-15T05:22:36.208Z,26.35
2023-02-15T05:25:21.322Z,27.77
2023-02-15T05:28:08.087Z,25.65
2023-02-15T05:30:36.390Z,26.10
2023-02-15T05:33:05.491Z,27.85
2023-02-15T05:35:34.132Z,27.52
2023-02-15T05:38:02.114Z,26.40
2023-02-15T05:40:30.108Z,26.73
2023-02-15T05:43:00.035Z,26.75
2023-02-15T05:45:28.088Z,27.35
2023-02-15T05:47:56.026Z,27.88
2023-02-15T05:50:23.982Z,25.77
2023-02-15T05:52:52.606Z,26.88
2023-02-15T05:55:20.732Z,27.30
2023-02-15T05:57:48.741Z,26.25
2023-02-15T06:00:18.990Z,26.08
2023-02-15T06:02:46.964Z,28.10
2023-02-15T06:05:15.145Z,26.65
2023-02-15T06:07:45.434Z,26.33
2023-02-15T06:10:14.097Z,27.05
2023-02-15T06:12:42.105Z,26.40
2023-02-15T06:15:10.855Z,29.02
2023-02-15T06:17:40.219Z,28.23
2023-02-15T06:20:09.414Z,27.17
2023-02-15T06:22:37.485Z,27.88
2023-02-15T06:25:05.885Z,28.95
2023-02-15T06:27:33.862Z,26.50
2023-02-15T06:30:02.006Z,25.63
2023-02-15T06:32:30.030Z,26.30
2023-02-15T06:34:59.492Z,26.40
2023-02-15T06:37:27.478Z,26.85
2023-02-15T06:39:55.510Z,26.60
2023-02-15T06:42:23.653Z,26.30
2023-02-15T06:44:51.689Z,25.50
2023-02-15T06:47:19.691Z,26.52
2023-02-15T06:49:47.698Z,26.95
2023-02-15T06:52:16.980Z,26.75
2023-02-15T06:54:45.052Z,25.83
2023-02-15T06:57:13.094Z,26.75
2023-02-15T06:59:41.114Z,27.30
2023-02-15T07:02:10.465Z,28.73
2023-02-15T07:04:38.575Z,26.50
2023-02-15T07:07:09.777Z,27.45
2023-02-15T07:09:39.114Z,28.20
2023-02-15T07:12:25.228Z,28.25
2023-02-15T07:14:53.341Z,27.02
2023-02-15T07:17:35.428Z,28.33
2023-02-15T07:20:05.010Z,29.75
2023-02-15T07:22:34.993Z,27.73
2023-02-15T07:25:04.541Z,28.17
2023-02-15T07:27:33.464Z,29.25
2023-02-15T07:30:01.597Z,28.70
2023-02-15T07:32:31.397Z,27.77
2023-02-15T07:35:00.204Z,30.50
2023-02-15T07:37:28.785Z,30.25
2023-02-15T07:39:56.791Z,29.20
2023-02-15T07:42:26.101Z,29.55
2023-02-15T07:44:54.427Z,30.92
2023-02-15T07:47:22.436Z,30.20
2023-02-15T07:49:51.234Z,30.38
2023-02-15T07:52:19.174Z,30.13
2023-02-15T07:54:47.143Z,28.47
2023-02-15T07:57:15.140Z,29.00
2023-02-15T07:59:44.537Z,31.10
2023-02-15T08:02:13.158Z,29.70
2023-02-15T08:04:41.335Z,30.73
2023-02-15T08:07:09.291Z,32.08
2023-02-15T08:09:37.312Z,30.33
2023-02-15T08:12:06.228Z,29.77
2023-02-15T08:14:34.432Z,30.20
2023-02-15T08:17:05.941Z,31.52
2023-02-15T08:19:35.531Z,31.85
2023-02-15T08:22:05.432Z,30.10
2023-02-15T08:24:35.511Z,29.63
2023-02-15T08:27:06.169Z,32.05
2023-02-15T08:29:35.901Z,31.52
2023-02-15T08:32:07.395Z,29.55
2023-02-15T08:34:37.412Z,31.85
2023-02-15T08:37:07.000Z,29.73
2023-02-15T08:39:35.963Z,31.48
2023-02-15T08:42:04.556Z,29.38
2023-02-15T08:44:32.604Z,32.35
2023-02-15T08:47:05.021Z,31.38
2023-02-15T08:49:34.838Z,33.17
2023-02-15T08:52:02.829Z,32.53
2023-02-15T08:54:30.835Z,32.42
2023-02-15T08:56:58.891Z,32.58
2023-02-15T08:59:27.921Z,33.03
2023-02-15T09:01:56.301Z,33.90
2023-02-15T09:04:24.608Z,35.65
2023-02-15T09:06:54.455Z,35.95
2023-02-15T09:09:22.742Z,36.40
2023-02-15T09:11:58.772Z,37.40
2023-02-15T09:14:29.562Z,36.58
2023-02-15T09:16:57.896Z,36.67
2023-02-15T09:19:26.636Z,39.97
2023-02-15T09:21:56.516Z,38.88
2023-02-15T09:24:24.595Z,38.78
2023-02-15T09:26:52.586Z,38.80
2023-02-15T09:29:21.300Z,39.38
2023-02-15T09:31:50.966Z,38.97
2023-02-15T09:34:22.130Z,38.45
2023-02-15T09:36:50.590Z,39.55
2023-02-15T09:39:22.265Z,41.70
2023-02-15T09:42:09.253Z,40.08
2023-02-15T09:45:14.256Z,39.05
2023-02-15T09:47:59.460Z,41.45
2023-02-15T09:50:32.371Z,41.00
2023-02-15T09:53:23.484Z,43.28
2023-02-15T09:56:01.345Z,44.10
2023-02-15T09:58:40.182Z,44.83
2023-02-15T10:01:20.494Z,45.72
2023-02-15T10:04:02.852Z,45.78
2023-02-15T10:06:43.098Z,46.10
2023-02-15T10:09:32.948Z,46.00
2023-02-15T10:12:15.021Z,46.63
2023-02-15T10:15:08.184Z,47.90
2023-02-15T10:17:49.459Z,46.88
2023-02-15T10:20:28.029Z,46.38
2023-02-15T10:23:17.265Z,46.63
2023-02-15T10:25:51.969Z,47.83
2023-02-15T10:28:25.403Z,48.10
2023-02-15T10:30:57.108Z,45.80
2023-02-15T10:33:40.090Z,48.35
2023-02-15T10:36:25.163Z,47.55
2023-02-15T10:39:03.848Z,47.70
2023-02-15T10:41:43.120Z,46.10
2023-02-15T10:44:25.940Z,47.95
2023-02-15T10:47:12.531Z,48.95
2023-02-15T10:49:53.077Z,50.15
2023-02-15T10:52:34.368Z,47.22
2023-02-15T10:55:14.566Z,49.08
2023-02-15T10:57:54.483Z,48.80
2023-02-15T11:00:30.103Z,48.20
2023-02-15T11:03:14.800Z,49.20
2023-02-15T11:05:55.862Z,47.92
2023-02-15T11:08:26.460Z,46.25
2023-02-15T11:10:59.124Z,48.10
2023-02-15T11:13:35.004Z,47.70
2023-02-15T11:16:07.879Z,49.17
2023-02-15T11:18:40.917Z,46.85
2023-02-15T11:21:14.224Z,50.75
2023-02-15T11:23:45.834Z,48.75
2023-02-15T11:26:21.237Z,48.50
2023-02-15T11:28:54.648Z,47.90
2023-02-15T11:31:26.850Z,50.05
2023-02-15T11:33:59.642Z,49.90
2023-02-15T11:36:30.822Z,50.10
2023-02-15T11:39:04.735Z,51.40
2023-02-15T11:41:39.521Z,51.78
2023-02-15T11:44:14.324Z,51.15
2023-02-15T11:46:43.936Z,51.58
2023-02-15T11:49:24.806Z,50.38
2023-02-15T11:51:54.123Z,51.50
2023-02-15T11:54:27.980Z,51.00
2023-02-15T11:56:58.159Z,52.78
2023-02-15T11:59:32.382Z,53.95
2023-02-15T12:02:01.711Z,53.58
2023-02-15T12:04:35.484Z,52.83
2023-02-15T12:07:12.711Z,51.90
2023-02-15T12:09:48.913Z,54.25
2023-02-15T12:12:25.067Z,53.15
2023-02-15T12:14:56.488Z,51.67
2023-02-15T12:17:28.122Z,56.63
2023-02-15T12:19:58.810Z,52.60
2023-02-15T12:22:29.967Z,54.03
2023-02-15T12:25:01.317Z,53.10
2023-02-15T12:27:31.672Z,55.17
2023-02-15T12:30:03.274Z,54.17
2023-02-15T12:32:37.649Z,52.57
2023-02-15T12:35:15.318Z,53.30
2023-02-15T12:37:54.763Z,52.33
2023-02-15T12:40:26.815Z,52.88
2023-02-15T12:42:54.791Z,50.00
2023-02-15T12:45:26.838Z,51.97
2023-02-15T12:48:18.600Z,51.13
2023-02-15T12:50:55.323Z,51.30
2023-02-15T12:53:31.757Z,49.35
2023-02-15T12:56:01.237Z,51.20
2023-02-15T12:58:31.314Z,50.65
2023-02-15T13:01:13.277Z,47.65
2023-02-15T13:04:00.145Z,49.08
2023-02-15T13:06:29.072Z,46.03
2023-02-15T13:08:59.465Z,46.10
2023-02-15T13:11:31.371Z,48.97
2023-02-15T13:14:02.213Z,47.25
2023-02-15T13:16:33.760Z,48.85
2023-02-15T13:19:08.302Z,47.70
2023-02-15T13:21:40.147Z,46.23
2023-02-15T13:24:23.189Z,45.53
2023-02-15T13:26:51.829Z,47.33
2023-02-15T13:29:24.253Z,47.75
2023-02-15T13:31:53.960Z,45.78
2023-02-15T13:34:28.608Z,47.70
2023-02-15T13:37:03.443Z,46.70
2023-02-15T13:39:40.463Z,46.50
2023-02-15T13:42:22.418Z,48.97
2023-02-15T13:45:13.052Z,47.28
2023-02-15T13:47:49.345Z,46.03
2023-02-15T13:50:33.026Z,47.97
2023-02-15T13:53:16.271Z,46.00
2023-02-15T13:55:51.139Z,46.70
2023-02-15T13:58:47.559Z,46.10
2023-02-15T14:01:23.551Z,45.78
2023-02-15T14:04:08.797Z,47.70
2023-02-15T14:06:53.334Z,46.83
2023-02-15T14:09:36.464Z,45.07
2023-02-15T14:12:23.180Z,46.90
2023-02-15T14:15:13.112Z,47.10
2023-02-15T14:17:52.641Z,45.25
2023-02-15T14:20:27.334Z,45.20
2023-02-15T14:23:08.503Z,44.63
2023-02-15T14:25:42.327Z,44.58
2023-02-15T14:28:15.230Z,42.95
2023-02-15T14:30:46.999Z,41.97
2023-02-15T14:33:34.944Z,42.63
2023-02-15T14:36:07.327Z,42.13
2023-02-15T14:38:52.882Z,39.75
2023-02-15T14:41:25.274Z,39.38
2023-02-15T14:44:03.455Z,39.47
2023-02-15T14:46:38.423Z,41.20
2023-02-15T14:49:12.375Z,40.88
2023-02-15T14:52:08.134Z,39.72
2023-02-15T14:54:57.475Z,42.13
2023-02-15T14:57:37.198Z,40.58
2023-02-15T15:00:34.459Z,42.25
2023-02-15T15:03:02.941Z,39.83
2023-02-15T15:05:36.104Z,40.35
2023-02-15T15:08:06.276Z,40.05
2023-02-15T15:10:53.611Z,42.00
2023-02-15T15:13:53.800Z,43.22
2023-02-15T15:16:45.555Z,43.20
2023-02-15T15:19:14.528Z,43.97
2023-02-15T15:22:03.815Z,43.13
2023-02-15T15:24:54.474Z,44.30
2023-02-15T15:27:55.426Z,42.53
2023-02-15T15:31:01.988Z,42.63
2023-02-15T15:34:09.561Z,44.67
2023-02-15T15:37:14.234Z,44.10
2023-02-15T15:40:19.342Z,44.60
2023-02-15T15:43:14.063Z,44.20
2023-02-15T15:46:06.737Z,43.40
2023-02-15T15:48:38.954Z,43.90
2023-02-15T15:51:15.466Z,44.47
2023-02-15T15:53:48.128Z,44.47
2023-02-15T15:56:21.527Z,44.85
2023-02-15T15:58:55.402Z,44.85
2023-02-15T16:01:28.849Z,46.63
2023-02-15T16:03:58.877Z,42.97
2023-02-15T16:06:36.218Z,43.08
2023-02-15T16:09:18.458Z,43.30
2023-02-15T16:11:47.845Z,43.03
2023-02-15T16:14:20.261Z,44.13
2023-02-15T16:16:54.297Z,43.88
2023-02-15T16:19:25.553Z,45.35
2023-02-15T16:21:54.257Z,47.10
2023-02-15T16:24:45.999Z,45.60
2023-02-15T16:27:29.574Z,48.08
2023-02-15T16:29:58.941Z,46.55
2023-02-15T16:32:29.973Z,47.23
2023-02-15T16:35:00.038Z,48.13
2023-02-15T16:37:29.854Z,46.17
2023-02-15T16:39:58.061Z,47.72
2023-02-15T16:42:26.634Z,45.90
2023-02-15T16:45:03.096Z,46.95
2023-02-15T16:47:33.393Z,46.20
2023-02-15T16:50:04.314Z,47.33
2023-02-15T16:52:32.563Z,45.90
2023-02-15T16:55:02.538Z,47.33
2023-02-15T16:57:34.890Z,47.53
2023-02-15T17:00:08.472Z,46.77
2023-02-15T17:02:55.160Z,46.72
2023-02-15T17:05:24.841Z,46.28
2023-02-15T17:08:06.658Z,46.80
2023-02-15T17:10:37.694Z,48.25
2023-02-15T17:13:11.677Z,47.55
2023-02-15T17:15:43.222Z,47.42
2023-02-15T17:18:17.086Z,44.95
2023-02-15T17:20:46.179Z,47.80
2023-02-15T17:23:32.469Z,49.85
2023-02-15T17:26:02.642Z,48.35
2023-02-15T17:28:33.404Z,47.90
2023-02-15T17:31:09.321Z,47.33
2023-02-15T17:33:40.451Z,50.38
2023-02-15T17:36:11.263Z,49.13
2023-02-15T17:38:40.059Z,47.55
2023-02-15T17:41:08.433Z,49.90
2023-02-15T17:43:36.444Z,46.80
2023-02-15T17:46:06.076Z,48.15
2023-02-15T17:48:36.596Z,47.60
2023-02-15T17:51:07.426Z,47.65
2023-02-15T17:53:35.834Z,50.23
2023-02-15T17:56:10.389Z,46.67
2023-02-15T17:58:39.373Z,46.78
2023-02-15T18:01:33.242Z,47.88
2023-02-15T18:04:18.873Z,47.65
2023-02-15T18:07:04.547Z,47.95
2023-02-15T18:09:50.213Z,47.50
2023-02-15T18:12:22.601Z,46.90
2023-02-15T18:14:51.157Z,48.17
2023-02-15T18:17:22.617Z,47.28
2023-02-15T18:19:50.611Z,47.38
2023-02-15T18:22:20.112Z,46.08
2023-02-15T18:24:49.339Z,47.05
2023-02-15T18:27:18.147Z,46.90
2023-02-15T18:29:46.166Z,48.55
2023-02-15T18:32:18.823Z,45.38
2023-02-15T18:34:49.600Z,47.33
2023-02-15T18:37:19.779Z,47.27
2023-02-15T18:39:49.430Z,46.00
2023-02-15T18:42:22.396Z,47.25
2023-02-15T18:44:50.888Z,48.03
2023-02-15T18:47:18.892Z,45.13
2023-02-15T18:49:48.318Z,46.03
2023-02-15T18:52:17.947Z,45.42
2023-02-15T18:54:46.467Z,47.47
2023-02-15T18:57:16.465Z,45.80
2023-02-15T18:59:44.562Z,45.83
2023-02-15T19:02:14.565Z,47.33
2023-02-15T19:04:42.847Z,46.63
2023-02-15T19:07:18.888Z,44.47
2023-02-15T19:09:50.690Z,45.75
2023-02-15T19:12:19.624Z,46.30
2023-02-15T19:14:47.954Z,45.45
2023-02-15T19:17:17.857Z,44.38
2023-02-15T19:19:46.376Z,45.55
2023-02-15T19:22:18.366Z,44.58
2023-02-15T19:24:47.973Z,45.08
2023-02-15T19:27:22.495Z,45.35
2023-02-15T19:29:51.173Z,44.42
2023-02-15T19:32:19.201Z,44.15
2023-02-15T19:34:47.221Z,46.10
2023-02-15T19:37:25.231Z,43.67
2023-02-15T19:39:53.810Z,44.80
2023-02-15T19:42:24.487Z,44.47
2023-02-15T19:44:54.599Z,44.58
2023-02-15T19:47:22.918Z,44.97
2023-02-15T19:49:50.857Z,44.80
2023-02-15T19:52:24.310Z,45.22
2023-02-15T19:54:54.626Z,46.65
2023-02-15T19:57:23.615Z,45.10
2023-02-15T19:59:51.900Z,44.28
2023-02-15T20:02:20.280Z,45.38
2023-02-15T20:04:48.420Z,45.95
2023-02-15T20:07:23.535Z,44.80
2023-02-15T20:09:51.645Z,43.88
2023-02-15T20:12:23.057Z,43.08
2023-02-15T20:14:51.445Z,43.53
2023-02-15T20:17:19.514Z,44.10
2023-02-15T20:19:47.518Z,43.38
2023-02-15T20:22:25.088Z,42.97
2023-02-15T20:24:55.598Z,42.15
2023-02-15T20:27:23.925Z,41.95
2023-02-15T20:29:51.991Z,41.45
2023-02-15T20:32:20.139Z,42.97
2023-02-15T20:34:48.134Z,42.08
2023-02-15T20:37:24.242Z,42.85
2023-02-15T20:39:53.743Z,41.22
2023-02-15T20:42:21.920Z,44.08
2023-02-15T20:44:49.863Z,42.50
2023-02-15T20:47:18.437Z,39.85
2023-02-15T20:49:46.433Z,40.13
2023-02-15T20:52:20.814Z,41.60
2023-02-15T20:54:49.104Z,41.17
2023-02-15T20:57:18.549Z,41.33
2023-02-15T20:59:46.509Z,40.70
2023-02-15T21:02:18.902Z,41.40
2023-02-15T21:04:47.251Z,41.17
2023-02-15T21:07:17.005Z,39.95
2023-02-15T21:09:45.035Z,40.15
2023-02-15T21:12:15.854Z,37.75
2023-02-15T21:14:46.073Z,40.00
2023-02-15T21:17:15.268Z,41.22
2023-02-15T21:19:43.297Z,40.25
2023-02-15T21:22:13.054Z,41.33
2023-02-15T21:24:45.612Z,37.80
2023-02-15T21:27:14.416Z,39.55
2023-02-15T21:29:43.843Z,38.15
2023-02-15T21:32:12.147Z,39.50
2023-02-15T21:34:40.993Z,38.63
2023-02-15T21:37:27.378Z,38.10
2023-02-15T21:39:55.470Z,38.67
2023-02-15T21:42:40.662Z,38.40
2023-02-15T21:45:34.097Z,39.28
2023-02-15T21:48:02.225Z,40.58
2023-02-15T21:50:48.166Z,39.60
2023-02-15T21:53:22.651Z,38.95
2023-02-15T21:55:51.355Z,39.47
2023-02-15T21:58:22.722Z,38.72
2023-02-15T22:00:54.774Z,40.05
2023-02-15T22:03:23.611Z,42.03
2023-02-15T22:05:51.967Z,39.97
2023-02-15T22:08:20.022Z,39.03
2023-02-15T22:10:49.051Z,39.07
2023-02-15T22:13:20.831Z,40.47
2023-02-15T22:15:48.962Z,40.63
2023-02-15T22:18:23.198Z,39.75
2023-02-15T22:20:51.524Z,41.37
2023-02-15T22:23:19.598Z,40.40
2023-02-15T22:25:54.601Z,41.70
2023-02-15T22:28:27.606Z,40.53
2023-02-15T22:30:55.668Z,43.53
2023-02-15T22:33:27.541Z,41.60
2023-02-15T22:35:55.953Z,41.47
2023-02-15T22:38:24.514Z,42.58
2023-02-15T22:40:54.804Z,43.30
2023-02-15T22:43:40.017Z,44.15
2023-02-15T22:46:12.194Z,42.63
2023-02-15T22:48:41.911Z,42.80
2023-02-15T22:51:12.943Z,43.42
2023-02-15T22:53:41.012Z,43.35
2023-02-15T22:56:14.991Z,44.10
2023-02-15T22:58:43.623Z,44.80
2023-02-15T23:01:23.170Z,45.10
2023-02-15T23:03:52.561Z,45.45
2023-02-15T23:06:20.518Z,43.88
2023-02-15T23:08:48.511Z,46.30
2023-02-15T23:11:16.786Z,45.80
2023-02-15T23:13:44.832Z,46.42
2023-02-15T23:16:16.959Z,46.15
2023-02-15T23:18:46.939Z,45.67
2023-02-15T23:21:21.387Z,44.80
2023-02-15T23:23:52.941Z,46.38
2023-02-15T23:26:23.124Z,46.72
2023-02-15T23:28:52.557Z,46.35
2023-02-15T23:31:22.935Z,47.55
2023-02-15T23:33:52.618Z,46.00
2023-02-15T23:36:28.109Z,46.70
2023-02-15T23:38:57.525Z,47.55
2023-02-15T23:41:27.418Z,47.45
2023-02-15T23:43:57.678Z,46.60
2023-02-15T23:46:28.885Z,47.23
2023-02-15T23:48:57.510Z,45.83
2023-02-15T23:51:31.030Z,48.40
2023-02-15T23:53:59.352Z,46.40
2023-02-15T23:56:27.468Z,49.45
2023-02-15T23:58:55.538Z,47.15
